sensor_id;sensor_type;location;lat;lon;timestamp;pressure;altitude;pressure_sealevel;temperature;humidity
39681;BME280;26327;42.550;23.120;2023-06-22T00:00:55;93338.47;;;17.77;100.00
39681;BME280;26327;42.550;23.120;2023-06-22T00:03:21;93332.88;;;17.67;100.00
39681;BME280;26327;42.550;23.120;2023-06-22T00:05:48;93242.97;;;16.75;100.00
39681;BME280;26327;42.550;23.120;2023-06-22T00:08:14;93316.56;;;17.07;100.00
39681;BME280;26327;42.550;23.120;2023-06-22T00:10:39;93301.63;;;16.94;100.00
39681;BME280;26327;42.550;23.120;2023-06-22T00:13:06;93301.84;;;16.92;100.00
39681;BME280;26327;42.550;23.120;2023-06-22T00:15:32;93257.78;;;17.01;100.00
39681;BME280;26327;42.550;23.120;2023-06-22T00:17:58;93326.53;;;17.29;100.00
39681;BME280;26327;42.550;23.120;2023-06-22T00:20:24;93300.47;;;17.73;100.00
39681;BME280;26327;42.550;23.120;2023-06-22T00:22:57;93254.03;;;16.84;100.00
39681;BME280;26327;42.550;23.120;2023-06-22T00:25:23;93270.03;;;16.49;100.00
39681;BME280;26327;42.550;23.120;2023-06-22T00:27:49;93236.03;;;16.23;100.00
39681;BME280;26327;42.550;23.120;2023-06-22T00:30:16;93213.03;;;16.25;100.00
39681;BME280;26327;42.550;23.120;2023-06-22T00:32:42;93258.31;;;16.72;100.00
39681;BME280;26327;42.550;23.120;2023-06-22T00:35:08;93220.94;;;16.83;100.00
39681;BME280;26327;42.550;23.120;2023-06-22T00:37:35;93276.44;;;16.86;100.00
39681;BME280;26327;42.550;23.120;2023-06-22T00:40:01;93225.03;;;16.59;100.00
39681;BME280;26327;42.550;23.120;2023-06-22T00:42:27;93280.72;;;17.25;100.00
39681;BME280;26327;42.550;23.120;2023-06-22T00:44:52;93215.44;;;16.91;100.00
39681;BME280;26327;42.550;23.120;2023-06-22T00:47:18;93228.66;;;17.16;100.00
39681;BME280;26327;42.550;23.120;2023-06-22T00:49:44;93202.22;;;17.11;100.00
39681;BME280;26327;42.550;23.120;2023-06-22T00:52:11;93218.63;;;17.06;100.00
39681;BME280;26327;42.550;23.120;2023-06-22T00:54:42;93223.63;;;16.63;100.00
39681;BME280;26327;42.550;23.120;2023-06-22T00:57:12;93270.50;;;16.26;100.00
39681;BME280;26327;42.550;23.120;2023-06-22T00:59:42;93272.94;;;16.01;100.00
39681;BME280;26327;42.550;23.120;2023-06-22T01:02:08;93284.38;;;16.40;100.00
39681;BME280;26327;42.550;23.120;2023-06-22T01:04:37;93283.31;;;16.81;100.00
39681;BME280;26327;42.550;23.120;2023-06-22T01:07:35;93301.13;;;16.46;100.00
39681;BME280;26327;42.550;23.120;2023-06-22T01:10:18;93294.28;;;16.31;100.00
39681;BME280;26327;42.550;23.120;2023-06-22T01:12:52;93298.56;;;16.13;100.00
39681;BME280;26327;42.550;23.120;2023-06-22T01:15:33;93246.34;;;15.91;100.00
39681;BME280;26327;42.550;23.120;2023-06-22T01:18:04;93287.47;;;16.11;100.00
39681;BME280;26327;42.550;23.120;2023-06-22T01:20:30;93223.56;;;15.65;100.00
39681;BME280;26327;42.550;23.120;2023-06-22T01:26:06;93280.59;;;16.23;100.00
39681;BME280;26327;42.550;23.120;2023-06-22T01:28:49;93301.22;;;16.97;100.00
39681;BME280;26327;42.550;23.120;2023-06-22T01:31:17;93296.44;;;16.81;100.00
39681;BME280;26327;42.550;23.120;2023-06-22T01:33:45;93227.53;;;16.27;100.00
39681;BME280;26327;42.550;23.120;2023-06-22T01:36:11;93284.00;;;16.30;100.00
39681;BME280;26327;42.550;23.120;2023-06-22T01:38:38;93230.81;;;15.83;100.00
39681;BME280;26327;42.550;23.120;2023-06-22T01:41:04;93307.38;;;16.58;100.00
39681;BME280;26327;42.550;23.120;2023-06-22T01:43:30;93233.50;;;16.61;100.00
39681;BME280;26327;42.550;23.120;2023-06-22T01:45:57;93297.13;;;17.14;100.00
39681;BME280;26327;42.550;23.120;2023-06-22T01:48:23;93272.94;;;17.06;100.00
39681;BME280;26327;42.550;23.120;2023-06-22T01:50:51;93222.28;;;16.92;100.00
39681;BME280;26327;42.550;23.120;2023-06-22T01:53:17;93318.19;;;17.46;100.00
39681;BME280;26327;42.550;23.120;2023-06-22T01:55:42;93256.19;;;17.38;100.00
39681;BME280;26327;42.550;23.120;2023-06-22T01:58:08;93185.34;;;16.93;98.99
39681;BME280;26327;42.550;23.120;2023-06-22T02:00:37;93298.50;;;17.61;99.63
39681;BME280;26327;42.550;23.120;2023-06-22T02:03:08;93309.22;;;17.67;98.97
39681;BME280;26327;42.550;23.120;2023-06-22T02:05:38;93317.25;;;17.27;100.00
39681;BME280;26327;42.550;23.120;2023-06-22T02:08:09;93240.22;;;17.08;99.59
39681;BME280;26327;42.550;23.120;2023-06-22T02:10:37;93275.13;;;17.15;99.87
39681;BME280;26327;42.550;23.120;2023-06-22T02:13:06;93320.63;;;17.41;100.00
39681;BME280;26327;42.550;23.120;2023-06-22T02:15:32;93336.88;;;17.24;100.00
39681;BME280;26327;42.550;23.120;2023-06-22T02:17:57;93334.72;;;17.53;99.93
39681;BME280;26327;42.550;23.120;2023-06-22T02:20:24;93318.13;;;17.14;100.00
39681;BME280;26327;42.550;23.120;2023-06-22T02:22:49;93254.72;;;16.46;100.00
39681;BME280;26327;42.550;23.120;2023-06-22T02:25:15;93258.47;;;16.83;100.00
39681;BME280;26327;42.550;23.120;2023-06-22T02:27:41;93262.03;;;17.02;100.00
39681;BME280;26327;42.550;23.120;2023-06-22T02:30:08;93327.66;;;17.53;99.93
39681;BME280;26327;42.550;23.120;2023-06-22T02:32:34;93250.34;;;16.98;100.00
39681;BME280;26327;42.550;23.120;2023-06-22T02:34:59;93323.00;;;17.49;99.89
39681;BME280;26327;42.550;23.120;2023-06-22T02:37:25;93313.50;;;17.48;99.06
39681;BME280;26327;42.550;23.120;2023-06-22T02:39:54;93317.16;;;17.53;98.96
39681;BME280;26327;42.550;23.120;2023-06-22T02:42:19;93265.59;;;17.21;98.47
39681;BME280;26327;42.550;23.120;2023-06-22T02:44:47;93301.84;;;17.37;99.21
39681;BME280;26327;42.550;23.120;2023-06-22T02:47:12;93326.63;;;17.10;100.00
39681;BME280;26327;42.550;23.120;2023-06-22T02:49:38;93294.50;;;15.97;100.00
39681;BME280;26327;42.550;23.120;2023-06-22T02:52:03;93326.53;;;16.72;100.00
39681;BME280;26327;42.550;23.120;2023-06-22T02:54:29;93311.09;;;17.08;100.00
39681;BME280;26327;42.550;23.120;2023-06-22T02:56:54;93317.59;;;16.92;100.00
39681;BME280;26327;42.550;23.120;2023-06-22T02:59:19;93298.34;;;17.12;100.00
39681;BME280;26327;42.550;23.120;2023-06-22T03:01:51;93244.59;;;16.70;100.00
39681;BME280;26327;42.550;23.120;2023-06-22T03:04:18;93263.69;;;16.90;100.00
39681;BME280;26327;42.550;23.120;2023-06-22T03:06:43;93298.03;;;17.33;100.00
39681;BME280;26327;42.550;23.120;2023-06-22T03:09:08;93246.25;;;16.44;100.00
39681;BME280;26327;42.550;23.120;2023-06-22T03:11:34;93266.22;;;16.45;100.00
39681;BME280;26327;42.550;23.120;2023-06-22T03:14:00;93312.63;;;16.58;100.00
39681;BME280;26327;42.550;23.120;2023-06-22T03:16:26;93328.34;;;16.64;100.00
39681;BME280;26327;42.550;23.120;2023-06-22T03:18:52;93225.16;;;15.99;100.00
39681;BME280;26327;42.550;23.120;2023-06-22T03:21:19;93252.34;;;16.31;100.00
39681;BME280;26327;42.550;23.120;2023-06-22T03:23:44;93343.25;;;16.84;100.00
39681;BME280;26327;42.550;23.120;2023-06-22T03:26:10;93327.97;;;16.67;100.00
39681;BME280;26327;42.550;23.120;2023-06-22T03:28:36;93344.47;;;16.88;100.00
39681;BME280;26327;42.550;23.120;2023-06-22T03:31:01;93274.47;;;16.55;100.00
39681;BME280;26327;42.550;23.120;2023-06-22T03:33:28;93219.50;;;15.50;100.00
39681;BME280;26327;42.550;23.120;2023-06-22T03:35:53;93259.19;;;15.47;100.00
39681;BME280;26327;42.550;23.120;2023-06-22T03:38:19;93342.50;;;16.11;100.00
39681;BME280;26327;42.550;23.120;2023-06-22T03:40:44;93366.66;;;17.05;100.00
39681;BME280;26327;42.550;23.120;2023-06-22T03:43:09;93356.38;;;17.42;100.00
39681;BME280;26327;42.550;23.120;2023-06-22T03:45:35;93363.63;;;17.46;100.00
39681;BME280;26327;42.550;23.120;2023-06-22T03:48:01;93340.88;;;17.34;100.00
39681;BME280;26327;42.550;23.120;2023-06-22T03:50:27;93296.88;;;17.22;100.00
39681;BME280;26327;42.550;23.120;2023-06-22T03:52:52;93321.84;;;17.38;100.00
39681;BME280;26327;42.550;23.120;2023-06-22T03:55:19;93353.50;;;17.50;100.00
39681;BME280;26327;42.550;23.120;2023-06-22T03:57:45;93370.97;;;17.82;100.00
39681;BME280;26327;42.550;23.120;2023-06-22T04:00:11;93362.75;;;17.72;100.00
39681;BME280;26327;42.550;23.120;2023-06-22T04:02:36;93371.44;;;17.73;100.00
39681;BME280;26327;42.550;23.120;2023-06-22T04:05:02;93363.34;;;17.74;100.00
39681;BME280;26327;42.550;23.120;2023-06-22T04:07:27;93350.28;;;17.54;100.00
39681;BME280;26327;42.550;23.120;2023-06-22T04:09:53;93345.63;;;17.50;100.00
39681;BME280;26327;42.550;23.120;2023-06-22T04:12:18;93295.28;;;17.21;100.00
39681;BME280;26327;42.550;23.120;2023-06-22T04:14:43;93326.66;;;17.48;100.00
39681;BME280;26327;42.550;23.120;2023-06-22T04:17:09;93348.25;;;17.94;100.00
39681;BME280;26327;42.550;23.120;2023-06-22T04:19:34;93336.31;;;17.92;100.00
39681;BME280;26327;42.550;23.120;2023-06-22T04:22:00;93359.44;;;17.83;100.00
39681;BME280;26327;42.550;23.120;2023-06-22T04:24:25;93353.22;;;17.78;100.00
39681;BME280;26327;42.550;23.120;2023-06-22T04:26:50;93341.34;;;17.69;100.00
39681;BME280;26327;42.550;23.120;2023-06-22T04:29:20;93284.72;;;17.66;100.00
39681;BME280;26327;42.550;23.120;2023-06-22T04:31:46;93313.25;;;18.01;100.00
39681;BME280;26327;42.550;23.120;2023-06-22T04:34:16;93355.41;;;18.37;100.00
39681;BME280;26327;42.550;23.120;2023-06-22T04:36:42;93283.38;;;17.88;100.00
39681;BME280;26327;42.550;23.120;2023-06-22T04:39:09;93297.47;;;17.69;100.00
39681;BME280;26327;42.550;23.120;2023-06-22T04:41:44;93347.41;;;17.69;100.00
39681;BME280;26327;42.550;23.120;2023-06-22T04:46:38;93356.53;;;17.60;100.00
39681;BME280;26327;42.550;23.120;2023-06-22T04:49:08;93348.34;;;17.81;100.00
39681;BME280;26327;42.550;23.120;2023-06-22T04:51:42;93354.44;;;18.63;100.00
39681;BME280;26327;42.550;23.120;2023-06-22T04:54:08;93345.63;;;18.94;100.00
39681;BME280;26327;42.550;23.120;2023-06-22T04:56:34;93234.06;;;17.84;100.00
39681;BME280;26327;42.550;23.120;2023-06-22T04:59:00;93345.75;;;18.31;100.00
39681;BME280;26327;42.550;23.120;2023-06-22T05:01:25;93359.44;;;18.40;100.00
39681;BME280;26327;42.550;23.120;2023-06-22T05:03:51;93335.25;;;18.99;100.00
39681;BME280;26327;42.550;23.120;2023-06-22T05:06:21;93324.91;;;19.16;100.00
39681;BME280;26327;42.550;23.120;2023-06-22T05:08:50;93265.44;;;18.90;100.00
39681;BME280;26327;42.550;23.120;2023-06-22T05:11:15;93356.50;;;19.34;100.00
39681;BME280;26327;42.550;23.120;2023-06-22T05:13:41;93285.06;;;18.94;100.00
39681;BME280;26327;42.550;23.120;2023-06-22T05:16:06;93343.13;;;19.54;100.00
39681;BME280;26327;42.550;23.120;2023-06-22T05:18:31;93352.78;;;19.60;100.00
39681;BME280;26327;42.550;23.120;2023-06-22T05:20:58;93345.91;;;19.59;100.00
39681;BME280;26327;42.550;23.120;2023-06-22T05:23:24;93345.38;;;19.69;100.00
39681;BME280;26327;42.550;23.120;2023-06-22T05:25:50;93343.72;;;19.86;100.00
39681;BME280;26327;42.550;23.120;2023-06-22T05:28:15;93347.78;;;20.00;100.00
39681;BME280;26327;42.550;23.120;2023-06-22T05:30:41;93269.28;;;19.84;100.00
39681;BME280;26327;42.550;23.120;2023-06-22T05:33:06;93290.56;;;20.01;100.00
39681;BME280;26327;42.550;23.120;2023-06-22T05:35:32;93291.25;;;19.66;100.00
39681;BME280;26327;42.550;23.120;2023-06-22T05:37:57;93331.03;;;19.95;100.00
39681;BME280;26327;42.550;23.120;2023-06-22T05:40:23;93280.97;;;19.76;100.00
39681;BME280;26327;42.550;23.120;2023-06-22T05:42:48;93296.56;;;19.78;100.00
39681;BME280;26327;42.550;23.120;2023-06-22T05:45:13;93362.38;;;20.15;100.00
39681;BME280;26327;42.550;23.120;2023-06-22T05:47:39;93368.69;;;20.43;100.00
39681;BME280;26327;42.550;23.120;2023-06-22T05:50:05;93371.78;;;20.64;100.00
39681;BME280;26327;42.550;23.120;2023-06-22T05:52:33;93357.66;;;20.58;100.00
39681;BME280;26327;42.550;23.120;2023-06-22T05:54:59;93362.72;;;20.60;100.00
39681;BME280;26327;42.550;23.120;2023-06-22T05:57:24;93323.41;;;20.28;100.00
39681;BME280;26327;42.550;23.120;2023-06-22T05:59:49;93272.69;;;20.15;100.00
39681;BME280;26327;42.550;23.120;2023-06-22T06:02:15;93364.66;;;21.11;100.00
39681;BME280;26327;42.550;23.120;2023-06-22T06:04:40;93373.50;;;21.28;100.00
39681;BME280;26327;42.550;23.120;2023-06-22T06:07:06;93344.09;;;21.13;100.00
39681;BME280;26327;42.550;23.120;2023-06-22T06:09:32;93324.03;;;21.00;100.00
39681;BME280;26327;42.550;23.120;2023-06-22T06:11:57;93368.31;;;21.22;100.00
39681;BME280;26327;42.550;23.120;2023-06-22T06:14:23;93296.16;;;20.58;100.00
39681;BME280;26327;42.550;23.120;2023-06-22T06:16:49;93303.72;;;20.66;100.00
39681;BME280;26327;42.550;23.120;2023-06-22T06:19:14;93373.06;;;21.31;100.00
39681;BME280;26327;42.550;23.120;2023-06-22T06:21:40;93307.81;;;21.09;100.00
39681;BME280;26327;42.550;23.120;2023-06-22T06:24:05;93360.50;;;21.50;100.00
39681;BME280;26327;42.550;23.120;2023-06-22T06:26:31;93358.22;;;21.42;100.00
39681;BME280;26327;42.550;23.120;2023-06-22T06:28:59;93306.38;;;21.41;100.00
39681;BME280;26327;42.550;23.120;2023-06-22T06:31:25;93346.84;;;21.42;100.00
39681;BME280;26327;42.550;23.120;2023-06-22T06:33:52;93343.44;;;21.29;100.00
39681;BME280;26327;42.550;23.120;2023-06-22T06:36:19;93294.31;;;21.22;100.00
39681;BME280;26327;42.550;23.120;2023-06-22T06:38:44;93354.34;;;22.30;100.00
39681;BME280;26327;42.550;23.120;2023-06-22T06:41:12;93353.63;;;22.35;100.00
39681;BME280;26327;42.550;23.120;2023-06-22T06:43:37;93354.75;;;22.39;100.00
39681;BME280;26327;42.550;23.120;2023-06-22T06:46:03;93285.75;;;21.83;100.00
39681;BME280;26327;42.550;23.120;2023-06-22T06:48:28;93284.25;;;21.87;100.00
39681;BME280;26327;42.550;23.120;2023-06-22T06:50:53;93287.84;;;21.98;100.00
39681;BME280;26327;42.550;23.120;2023-06-22T06:53:19;93342.31;;;22.39;100.00
39681;BME280;26327;42.550;23.120;2023-06-22T06:55:44;93304.16;;;22.07;100.00
39681;BME280;26327;42.550;23.120;2023-06-22T06:58:10;93296.34;;;22.28;100.00
39681;BME280;26327;42.550;23.120;2023-06-22T07:00:39;93322.56;;;22.30;100.00
39681;BME280;26327;42.550;23.120;2023-06-22T07:03:04;93352.91;;;22.73;100.00
39681;BME280;26327;42.550;23.120;2023-06-22T07:05:29;93344.09;;;22.84;100.00
39681;BME280;26327;42.550;23.120;2023-06-22T07:07:55;93325.63;;;23.11;99.79
39681;BME280;26327;42.550;23.120;2023-06-22T07:10:20;93352.19;;;23.54;97.82
39681;BME280;26327;42.550;23.120;2023-06-22T07:12:46;93294.66;;;23.55;95.29
39681;BME280;26327;42.550;23.120;2023-06-22T07:15:11;93287.06;;;23.42;96.82
39681;BME280;26327;42.550;23.120;2023-06-22T07:17:38;93336.34;;;23.60;97.60
39681;BME280;26327;42.550;23.120;2023-06-22T07:20:07;93326.78;;;23.59;97.67
39681;BME280;26327;42.550;23.120;2023-06-22T07:22:41;93330.84;;;23.44;100.00
39681;BME280;26327;42.550;23.120;2023-06-22T07:25:07;93298.34;;;23.54;98.46
39681;BME280;26327;42.550;23.120;2023-06-22T07:27:42;93295.88;;;23.47;97.63
39681;BME280;26327;42.550;23.120;2023-06-22T07:30:08;93351.31;;;23.93;98.45
39681;BME280;26327;42.550;23.120;2023-06-22T07:32:34;93350.75;;;24.12;97.29
39681;BME280;26327;42.550;23.120;2023-06-22T07:35:00;93338.75;;;24.10;95.82
39681;BME280;26327;42.550;23.120;2023-06-22T07:37:27;93342.59;;;24.19;96.11
39681;BME280;26327;42.550;23.120;2023-06-22T07:39:53;93307.44;;;24.12;96.46
39681;BME280;26327;42.550;23.120;2023-06-22T07:42:23;93302.75;;;23.92;95.19
39681;BME280;26327;42.550;23.120;2023-06-22T07:44:49;93301.69;;;23.93;95.55
39681;BME280;26327;42.550;23.120;2023-06-22T07:47:16;93328.63;;;24.61;94.57
39681;BME280;26327;42.550;23.120;2023-06-22T07:49:43;93350.88;;;24.87;93.90
39681;BME280;26327;42.550;23.120;2023-06-22T07:52:08;93350.56;;;24.51;90.82
39681;BME280;26327;42.550;23.120;2023-06-22T07:54:34;93337.81;;;24.21;90.98
39681;BME280;26327;42.550;23.120;2023-06-22T07:56:59;93357.75;;;24.51;91.94
39681;BME280;26327;42.550;23.120;2023-06-22T07:59:25;93314.66;;;24.43;91.57
39681;BME280;26327;42.550;23.120;2023-06-22T08:01:50;93341.91;;;24.98;86.55
39681;BME280;26327;42.550;23.120;2023-06-22T08:04:16;93349.84;;;25.30;82.86
39681;BME280;26327;42.550;23.120;2023-06-22T08:06:41;93295.00;;;24.82;85.13
39681;BME280;26327;42.550;23.120;2023-06-22T08:09:07;93319.53;;;24.94;85.20
39681;BME280;26327;42.550;23.120;2023-06-22T08:11:32;93289.13;;;24.74;83.62
39681;BME280;26327;42.550;23.120;2023-06-22T08:13:58;93300.13;;;24.93;84.14
39681;BME280;26327;42.550;23.120;2023-06-22T08:16:23;93338.41;;;25.29;82.57
39681;BME280;26327;42.550;23.120;2023-06-22T08:18:49;93344.78;;;25.28;84.57
39681;BME280;26327;42.550;23.120;2023-06-22T08:21:14;93324.94;;;25.04;84.30
39681;BME280;26327;42.550;23.120;2023-06-22T08:23:39;93324.53;;;25.80;82.72
39681;BME280;26327;42.550;23.120;2023-06-22T08:26:05;93335.00;;;26.22;82.76
39681;BME280;26327;42.550;23.120;2023-06-22T08:28:30;93285.16;;;25.87;80.29
39681;BME280;26327;42.550;23.120;2023-06-22T08:30:56;93302.00;;;25.40;81.58
39681;BME280;26327;42.550;23.120;2023-06-22T08:33:21;93278.97;;;25.66;81.19
39681;BME280;26327;42.550;23.120;2023-06-22T08:35:54;93263.50;;;25.58;82.38
39681;BME280;26327;42.550;23.120;2023-06-22T08:38:20;93320.09;;;26.26;80.62
39681;BME280;26327;42.550;23.120;2023-06-22T08:40:45;93313.75;;;26.67;76.15
39681;BME280;26327;42.550;23.120;2023-06-22T08:43:11;93307.88;;;26.86;74.93
39681;BME280;26327;42.550;23.120;2023-06-22T08:45:36;93268.56;;;25.59;74.70
39681;BME280;26327;42.550;23.120;2023-06-22T08:48:02;93267.09;;;26.04;76.23
39681;BME280;26327;42.550;23.120;2023-06-22T08:50:27;93320.44;;;26.50;76.38
39681;BME280;26327;42.550;23.120;2023-06-22T08:52:53;93225.75;;;25.66;78.24
39681;BME280;26327;42.550;23.120;2023-06-22T08:55:18;93330.75;;;26.26;78.16
39681;BME280;26327;42.550;23.120;2023-06-22T08:57:44;93314.50;;;26.17;79.97
39681;BME280;26327;42.550;23.120;2023-06-22T09:00:10;93310.00;;;26.43;79.84
39681;BME280;26327;42.550;23.120;2023-06-22T09:02:42;93276.41;;;26.22;77.34
39681;BME280;26327;42.550;23.120;2023-06-22T09:05:08;93258.31;;;26.14;78.26
39681;BME280;26327;42.550;23.120;2023-06-22T09:07:33;93291.53;;;25.91;78.92
39681;BME280;26327;42.550;23.120;2023-06-22T09:09:59;93246.53;;;25.79;80.66
39681;BME280;26327;42.550;23.120;2023-06-22T09:12:25;93305.25;;;26.50;77.57
39681;BME280;26327;42.550;23.120;2023-06-22T09:14:52;93252.66;;;25.75;80.88
39681;BME280;26327;42.550;23.120;2023-06-22T09:17:18;93305.97;;;26.20;79.63
39681;BME280;26327;42.550;23.120;2023-06-22T09:19:44;93290.28;;;26.44;80.71
39681;BME280;26327;42.550;23.120;2023-06-22T09:22:09;93228.47;;;26.22;77.21
39681;BME280;26327;42.550;23.120;2023-06-22T09:24:35;93291.59;;;26.11;75.63
39681;BME280;26327;42.550;23.120;2023-06-22T09:27:00;93243.94;;;26.50;76.33
39681;BME280;26327;42.550;23.120;2023-06-22T09:29:26;93277.78;;;26.65;76.93
39681;BME280;26327;42.550;23.120;2023-06-22T09:31:51;93252.19;;;26.49;77.82
39681;BME280;26327;42.550;23.120;2023-06-22T09:34:18;93262.00;;;26.84;77.13
39681;BME280;26327;42.550;23.120;2023-06-22T09:36:46;93270.00;;;26.84;75.36
39681;BME280;26327;42.550;23.120;2023-06-22T09:39:11;93255.91;;;26.99;76.01
39681;BME280;26327;42.550;23.120;2023-06-22T09:41:37;93259.09;;;26.75;73.70
39681;BME280;26327;42.550;23.120;2023-06-22T09:44:02;93298.38;;;27.54;74.77
39681;BME280;26327;42.550;23.120;2023-06-22T09:46:27;93308.25;;;27.64;74.51
39681;BME280;26327;42.550;23.120;2023-06-22T09:48:54;93298.69;;;27.48;76.49
39681;BME280;26327;42.550;23.120;2023-06-22T09:51:19;93286.28;;;27.03;77.16
39681;BME280;26327;42.550;23.120;2023-06-22T09:53:47;93303.78;;;27.44;78.05
39681;BME280;26327;42.550;23.120;2023-06-22T09:56:12;93311.25;;;27.32;74.88
39681;BME280;26327;42.550;23.120;2023-06-22T09:58:41;93249.19;;;26.96;74.24
39681;BME280;26327;42.550;23.120;2023-06-22T10:01:06;93278.94;;;27.49;75.04
39681;BME280;26327;42.550;23.120;2023-06-22T10:03:32;93254.00;;;26.89;75.62
39681;BME280;26327;42.550;23.120;2023-06-22T10:05:57;93271.56;;;27.15;77.34
39681;BME280;26327;42.550;23.120;2023-06-22T10:08:23;93303.25;;;27.37;75.20
39681;BME280;26327;42.550;23.120;2023-06-22T10:10:48;93288.16;;;26.82;74.62
39681;BME280;26327;42.550;23.120;2023-06-22T10:13:13;93253.75;;;26.75;78.69
39681;BME280;26327;42.550;23.120;2023-06-22T10:15:40;93292.06;;;27.25;78.10
39681;BME280;26327;42.550;23.120;2023-06-22T10:18:06;93279.88;;;27.04;77.52
39681;BME280;26327;42.550;23.120;2023-06-22T10:20:31;93238.25;;;26.92;77.42
39681;BME280;26327;42.550;23.120;2023-06-22T10:22:56;93235.84;;;26.96;74.76
39681;BME280;26327;42.550;23.120;2023-06-22T10:25:22;93289.50;;;27.00;74.53
39681;BME280;26327;42.550;23.120;2023-06-22T10:27:48;93284.06;;;27.25;74.70
39681;BME280;26327;42.550;23.120;2023-06-22T10:30:14;93228.69;;;26.76;73.24
39681;BME280;26327;42.550;23.120;2023-06-22T10:32:40;93272.53;;;27.40;75.16
39681;BME280;26327;42.550;23.120;2023-06-22T10:35:06;93232.91;;;27.13;72.23
39681;BME280;26327;42.550;23.120;2023-06-22T10:37:32;93281.53;;;27.69;73.59
39681;BME280;26327;42.550;23.120;2023-06-22T10:39:57;93215.94;;;27.43;72.85
39681;BME280;26327;42.550;23.120;2023-06-22T10:42:23;93221.16;;;27.19;72.94
39681;BME280;26327;42.550;23.120;2023-06-22T10:44:48;93272.66;;;27.79;69.65
39681;BME280;26327;42.550;23.120;2023-06-22T10:47:14;93283.41;;;27.69;70.35
39681;BME280;26327;42.550;23.120;2023-06-22T10:49:40;93195.72;;;27.37;70.35
39681;BME280;26327;42.550;23.120;2023-06-22T10:52:08;93251.72;;;27.47;69.78
39681;BME280;26327;42.550;23.120;2023-06-22T10:54:35;93228.66;;;27.07;67.72
39681;BME280;26327;42.550;23.120;2023-06-22T10:57:02;93263.47;;;27.46;70.60
39681;BME280;26327;42.550;23.120;2023-06-22T10:59:28;93252.31;;;27.28;71.81
39681;BME280;26327;42.550;23.120;2023-06-22T11:01:55;93189.72;;;27.06;71.51
39681;BME280;26327;42.550;23.120;2023-06-22T11:04:21;93225.19;;;27.11;70.44
39681;BME280;26327;42.550;23.120;2023-06-22T11:06:48;93209.09;;;27.26;69.21
39681;BME280;26327;42.550;23.120;2023-06-22T11:09:13;93217.41;;;27.20;68.30
39681;BME280;26327;42.550;23.120;2023-06-22T11:11:43;93170.53;;;27.04;67.70
39681;BME280;26327;42.550;23.120;2023-06-22T11:14:09;93268.53;;;27.47;67.70
39681;BME280;26327;42.550;23.120;2023-06-22T11:16:34;93234.97;;;27.31;72.79
39681;BME280;26327;42.550;23.120;2023-06-22T11:19:00;93203.78;;;27.76;70.64
39681;BME280;26327;42.550;23.120;2023-06-22T11:21:25;93264.75;;;28.08;70.00
39681;BME280;26327;42.550;23.120;2023-06-22T11:23:50;93197.66;;;27.21;70.83
39681;BME280;26327;42.550;23.120;2023-06-22T11:26:16;93263.47;;;27.46;66.94
39681;BME280;26327;42.550;23.120;2023-06-22T11:28:41;93172.84;;;27.20;69.59
39681;BME280;26327;42.550;23.120;2023-06-22T11:31:06;93188.28;;;27.28;67.39
39681;BME280;26327;42.550;23.120;2023-06-22T11:33:32;93213.94;;;27.19;68.76
39681;BME280;26327;42.550;23.120;2023-06-22T11:35:58;93257.03;;;27.52;70.75
39681;BME280;26327;42.550;23.120;2023-06-22T11:38:23;93249.25;;;27.60;71.99
39681;BME280;26327;42.550;23.120;2023-06-22T11:40:49;93259.13;;;27.60;68.64
39681;BME280;26327;42.550;23.120;2023-06-22T11:43:14;93190.28;;;27.57;69.86
39681;BME280;26327;42.550;23.120;2023-06-22T11:45:40;93239.19;;;27.37;66.25
39681;BME280;26327;42.550;23.120;2023-06-22T11:48:05;93195.25;;;27.19;67.55
39681;BME280;26327;42.550;23.120;2023-06-22T11:50:31;93238.41;;;27.37;68.54
39681;BME280;26327;42.550;23.120;2023-06-22T11:53:01;93188.47;;;27.47;69.18
39681;BME280;26327;42.550;23.120;2023-06-22T11:55:26;93231.09;;;27.57;67.35
39681;BME280;26327;42.550;23.120;2023-06-22T11:57:56;93245.28;;;28.02;68.98
39681;BME280;26327;42.550;23.120;2023-06-22T12:00:23;93176.50;;;27.84;66.21
39681;BME280;26327;42.550;23.120;2023-06-22T12:02:52;93229.38;;;27.82;67.28
39681;BME280;26327;42.550;23.120;2023-06-22T12:05:19;93135.78;;;27.19;65.08
39681;BME280;26327;42.550;23.120;2023-06-22T12:07:45;93182.22;;;27.67;65.62
39681;BME280;26327;42.550;23.120;2023-06-22T12:10:11;93233.28;;;28.00;65.84
39681;BME280;26327;42.550;23.120;2023-06-22T12:12:37;93152.97;;;27.42;65.42
39681;BME280;26327;42.550;23.120;2023-06-22T12:15:02;93170.59;;;27.43;68.00
39681;BME280;26327;42.550;23.120;2023-06-22T12:17:29;93171.06;;;27.55;66.24
39681;BME280;26327;42.550;23.120;2023-06-22T12:19:55;93246.91;;;28.37;68.55
39681;BME280;26327;42.550;23.120;2023-06-22T12:22:21;93237.28;;;28.02;67.33
39681;BME280;26327;42.550;23.120;2023-06-22T12:24:46;93249.06;;;28.35;66.99
39681;BME280;26327;42.550;23.120;2023-06-22T12:27:11;93222.19;;;28.56;68.57
39681;BME280;26327;42.550;23.120;2023-06-22T12:29:37;93191.22;;;28.15;67.69
39681;BME280;26327;42.550;23.120;2023-06-22T12:32:02;93246.16;;;28.32;66.56
39681;BME280;26327;42.550;23.120;2023-06-22T12:34:28;93247.56;;;27.80;67.99
39681;BME280;26327;42.550;23.120;2023-06-22T12:36:53;93213.59;;;27.36;68.42
39681;BME280;26327;42.550;23.120;2023-06-22T12:39:20;93230.31;;;27.62;70.90
39681;BME280;26327;42.550;23.120;2023-06-22T12:41:45;93190.72;;;27.20;71.70
39681;BME280;26327;42.550;23.120;2023-06-22T12:44:10;93211.94;;;25.84;78.48
39681;BME280;26327;42.550;23.120;2023-06-22T12:46:36;93197.84;;;25.89;82.64